Sumner, Washington
Current Conditions -  °F | °C
As of 6:08 AM on Monday 24 Nov 2014 (Local Time) from KTCM Reporting Station
Clear Clear  
Wind Chill: 32°   Ceiling: Unl
Heat Index: 32°   Visibility: 9mi
Dew Point: 32°   Wind: 2mph
Humidity: 100%   Direction: 210°SSW
Pressure: 30.34"   Gusts: NA
Location:  47.2°N, 122.23°W
Report Text: KTCM 241408Z AUTO 21002KT 9SM CLR 00/00 A3034 RMK AO2 $
Loading
Personal Weather Stations






























Interactive Weather Map New forecast layout! Learn more

10-Day Weather Forecast

Advertisements
Track Severe Weather on mobile